createdAt,value
2023-05-14T00:02:10.367Z,13.60
2023-05-14T00:04:37.315Z,13.60
2023-05-14T00:07:04.395Z,13.50
2023-05-14T00:09:32.053Z,13.50
2023-05-14T00:11:59.004Z,13.50
2023-05-14T00:14:26.067Z,13.60
2023-05-14T00:16:54.456Z,13.60
2023-05-14T00:19:21.738Z,13.60
2023-05-14T00:21:48.688Z,13.60
2023-05-14T00:24:15.799Z,13.60
2023-05-14T00:26:42.771Z,13.50
2023-05-14T00:29:09.856Z,13.60
2023-05-14T00:31:40.020Z,13.60
2023-05-14T00:34:07.248Z,13.60
2023-05-14T00:36:34.204Z,13.60
2023-05-14T00:39:01.211Z,13.60
2023-05-14T00:41:28.157Z,13.60
2023-05-14T00:43:55.086Z,13.50
2023-05-14T00:46:22.684Z,13.50
2023-05-14T00:48:51.033Z,13.50
2023-05-14T00:51:19.211Z,13.40
2023-05-14T00:53:47.235Z,13.40
2023-05-14T00:56:15.983Z,13.50
2023-05-14T00:58:42.918Z,13.50
2023-05-14T01:01:10.227Z,13.50
2023-05-14T01:03:37.437Z,13.50
2023-05-14T01:06:23.383Z,13.50
2023-05-14T01:09:09.198Z,13.50
2023-05-14T01:11:40.172Z,13.50
2023-05-14T01:14:22.138Z,13.50
2023-05-14T01:16:52.699Z,13.50
2023-05-14T01:19:33.560Z,13.50
2023-05-14T01:22:00.564Z,13.50
2023-05-14T01:24:27.671Z,13.50
2023-05-14T01:27:02.484Z,13.50
2023-05-14T01:29:32.562Z,13.40
2023-05-14T01:32:06.523Z,13.40
2023-05-14T01:34:35.510Z,13.40
2023-05-14T01:37:04.139Z,13.30
2023-05-14T01:39:32.686Z,13.30
2023-05-14T01:42:00.909Z,13.30
2023-05-14T01:44:28.375Z,13.20
2023-05-14T01:46:55.423Z,13.20
2023-05-14T01:49:22.811Z,13.00
2023-05-14T01:51:49.802Z,13.00
2023-05-14T01:54:16.749Z,13.00
2023-05-14T01:56:43.726Z,13.00
2023-05-14T01:59:11.370Z,13.10
2023-05-14T02:01:38.802Z,13.20
2023-05-14T02:04:05.868Z,13.20
2023-05-14T02:06:32.892Z,13.10
2023-05-14T02:08:59.964Z,13.10
2023-05-14T02:11:27.522Z,13.00
2023-05-14T02:13:54.517Z,13.00
2023-05-14T02:16:21.573Z,13.00
2023-05-14T02:18:48.596Z,13.10
2023-05-14T02:21:15.708Z,13.10
2023-05-14T02:23:43.147Z,13.20
2023-05-14T02:26:11.317Z,13.20
2023-05-14T02:28:38.344Z,13.20
2023-05-14T02:31:05.364Z,13.20
2023-05-14T02:33:32.720Z,13.20
2023-05-14T02:35:59.922Z,13.20
2023-05-14T02:38:27.306Z,13.20
2023-05-14T02:40:56.718Z,13.00
2023-05-14T02:43:23.801Z,13.00
2023-05-14T02:45:50.753Z,13.00
2023-05-14T02:48:17.716Z,13.00
2023-05-14T02:50:44.663Z,13.00
2023-05-14T02:53:11.928Z,13.00
2023-05-14T02:55:38.903Z,13.00
2023-05-14T02:58:05.858Z,13.00
2023-05-14T03:00:32.918Z,13.00
2023-05-14T03:03:00.712Z,13.00
2023-05-14T03:05:27.899Z,13.00
2023-05-14T03:07:54.884Z,13.00
2023-05-14T03:10:22.070Z,13.00
2023-05-14T03:12:49.486Z,12.90
2023-05-14T03:15:16.428Z,12.80
2023-05-14T03:17:43.406Z,12.80
2023-05-14T03:20:11.197Z,12.70
2023-05-14T03:22:38.182Z,12.60
2023-05-14T03:25:05.601Z,12.50
2023-05-14T03:27:33.741Z,12.50
2023-05-14T03:30:00.880Z,12.40
2023-05-14T03:32:28.083Z,12.30
2023-05-14T03:34:55.101Z,12.30
2023-05-14T03:37:22.089Z,12.30
2023-05-14T03:39:49.038Z,12.30
2023-05-14T03:42:16.074Z,12.30
2023-05-14T03:44:42.996Z,12.30
2023-05-14T03:47:09.988Z,12.30
2023-05-14T03:49:37.071Z,12.20
2023-05-14T03:52:04.871Z,12.20
2023-05-14T03:54:31.839Z,12.20
2023-05-14T03:56:59.988Z,12.20
2023-05-14T03:59:27.020Z,12.20
2023-05-14T04:01:54.245Z,12.30
2023-05-14T04:04:21.162Z,12.20
2023-05-14T04:06:48.135Z,12.10
2023-05-14T04:09:15.082Z,12.00
2023-05-14T04:11:42.216Z,12.00
2023-05-14T04:14:09.310Z,11.90
2023-05-14T04:16:36.347Z,11.80
2023-05-14T04:19:09.734Z,11.80
2023-05-14T04:21:37.917Z,11.70
2023-05-14T04:24:05.135Z,11.80
2023-05-14T04:26:32.076Z,11.80
2023-05-14T04:29:02.923Z,11.80
2023-05-14T04:31:30.508Z,11.80
2023-05-14T04:33:57.459Z,11.90
2023-05-14T04:36:24.854Z,11.90
2023-05-14T04:38:51.878Z,12.00
2023-05-14T04:41:18.852Z,12.00
2023-05-14T04:43:46.872Z,12.00
2023-05-14T04:46:14.032Z,12.10
2023-05-14T04:48:41.077Z,12.20
2023-05-14T04:51:08.102Z,12.30
2023-05-14T04:53:35.072Z,12.40
2023-05-14T04:56:02.029Z,12.50
2023-05-14T04:58:33.783Z,12.60
2023-05-14T05:01:06.289Z,12.60
2023-05-14T05:03:33.435Z,12.70
2023-05-14T05:06:00.512Z,12.90
2023-05-14T05:08:27.516Z,13.10
2023-05-14T05:10:54.535Z,13.20
2023-05-14T05:13:21.526Z,13.30
2023-05-14T05:15:48.579Z,13.40
2023-05-14T05:18:15.748Z,13.50
2023-05-14T05:20:42.728Z,13.60
2023-05-14T05:23:09.780Z,13.80
2023-05-14T05:25:36.689Z,14.00
2023-05-14T05:28:03.841Z,14.00
2023-05-14T05:30:30.881Z,14.10
2023-05-14T05:32:58.131Z,14.40
2023-05-14T05:35:25.143Z,14.50
2023-05-14T05:37:52.398Z,14.60
2023-05-14T05:40:19.390Z,14.70
2023-05-14T05:42:46.442Z,14.80
2023-05-14T05:45:13.417Z,14.90
2023-05-14T05:47:40.826Z,15.00
2023-05-14T05:50:08.877Z,15.00
2023-05-14T05:52:37.410Z,15.10
2023-05-14T05:55:04.779Z,15.20
2023-05-14T05:57:31.805Z,15.30
2023-05-14T05:59:58.733Z,15.40
2023-05-14T06:02:26.324Z,15.50
2023-05-14T06:04:53.468Z,15.50
2023-05-14T06:07:20.515Z,15.50
2023-05-14T06:09:47.516Z,15.50
2023-05-14T06:12:14.464Z,15.50
2023-05-14T06:14:41.422Z,15.50
2023-05-14T06:17:08.534Z,15.70
2023-05-14T06:19:35.500Z,15.80
2023-05-14T06:22:02.953Z,16.00
2023-05-14T06:24:30.704Z,16.00
2023-05-14T06:26:57.617Z,16.10
2023-05-14T06:29:25.538Z,16.20
2023-05-14T06:31:52.541Z,16.30
2023-05-14T06:34:19.770Z,16.30
2023-05-14T06:36:46.899Z,16.50
2023-05-14T06:39:13.945Z,16.60
2023-05-14T06:41:40.973Z,16.80
2023-05-14T06:44:13.801Z,16.90
2023-05-14T06:46:40.855Z,17.10
2023-05-14T06:49:07.831Z,17.10
2023-05-14T06:51:34.861Z,17.30
2023-05-14T06:54:01.835Z,17.30
2023-05-14T06:56:28.810Z,17.30
2023-05-14T06:58:55.972Z,17.50
2023-05-14T07:01:23.054Z,17.50
2023-05-14T07:03:50.091Z,17.60
2023-05-14T07:06:17.198Z,17.60
2023-05-14T07:08:47.460Z,17.70
2023-05-14T07:11:15.242Z,17.70
2023-05-14T07:13:42.822Z,17.70
2023-05-14T07:16:10.408Z,17.70
2023-05-14T07:18:37.644Z,17.80
2023-05-14T07:21:06.602Z,18.00
2023-05-14T07:23:36.594Z,18.00
2023-05-14T07:26:07.338Z,18.00
2023-05-14T07:28:34.790Z,18.00
2023-05-14T07:31:01.954Z,18.00
2023-05-14T07:33:29.027Z,18.00
2023-05-14T07:35:55.994Z,17.90
2023-05-14T07:38:23.073Z,17.90
2023-05-14T07:40:50.040Z,17.90
2023-05-14T07:43:17.254Z,17.80
2023-05-14T07:45:44.384Z,17.80
2023-05-14T07:48:11.742Z,17.80
2023-05-14T07:50:39.196Z,17.80
2023-05-14T07:53:06.370Z,17.80
2023-05-14T07:55:33.436Z,17.80
2023-05-14T07:58:00.948Z,18.00
2023-05-14T08:00:28.083Z,18.00
2023-05-14T08:02:56.110Z,18.30
2023-05-14T08:05:23.264Z,18.20
2023-05-14T08:07:50.308Z,18.30
2023-05-14T08:10:17.206Z,18.30
2023-05-14T08:12:44.248Z,18.30
2023-05-14T08:15:11.308Z,18.30
2023-05-14T08:17:38.342Z,18.30
2023-05-14T08:20:06.843Z,18.30
2023-05-14T08:22:34.036Z,18.30
2023-05-14T08:25:02.972Z,18.20
2023-05-14T08:27:30.012Z,18.20
2023-05-14T08:29:57.056Z,18.20
2023-05-14T08:32:24.377Z,18.10
2023-05-14T08:34:52.086Z,18.10
2023-05-14T08:37:19.177Z,18.10
2023-05-14T08:39:46.212Z,18.20
2023-05-14T08:42:13.954Z,18.30
2023-05-14T08:44:50.146Z,18.20
2023-05-14T08:47:20.865Z,18.20
2023-05-14T08:49:53.239Z,18.30
2023-05-14T08:52:22.274Z,18.30
2023-05-14T08:54:51.130Z,18.40
2023-05-14T08:57:20.302Z,18.40
2023-05-14T08:59:47.648Z,18.50
2023-05-14T09:02:17.420Z,18.50
2023-05-14T09:04:45.301Z,18.50
2023-05-14T09:07:12.530Z,18.50
2023-05-14T09:09:40.849Z,18.50
2023-05-14T09:12:08.198Z,18.50
2023-05-14T09:14:35.618Z,18.60
2023-05-14T09:17:03.628Z,18.60
2023-05-14T09:19:30.969Z,18.50
2023-05-14T09:22:01.532Z,18.50
2023-05-14T09:24:31.163Z,18.50
2023-05-14T09:26:58.782Z,18.60
2023-05-14T09:29:27.728Z,18.60
2023-05-14T09:31:58.435Z,18.70
2023-05-14T09:34:30.865Z,18.70
2023-05-14T09:37:02.100Z,18.80
2023-05-14T09:39:30.528Z,19.00
2023-05-14T09:41:57.823Z,19.00
2023-05-14T09:44:25.636Z,19.10
2023-05-14T09:46:53.715Z,19.00
2023-05-14T09:49:21.056Z,19.00
2023-05-14T09:51:49.589Z,19.00
2023-05-14T09:54:16.884Z,19.10
2023-05-14T09:56:44.574Z,19.10
2023-05-14T09:59:11.730Z,19.10
2023-05-14T10:01:39.624Z,19.20
2023-05-14T10:04:09.354Z,19.20
2023-05-14T10:06:42.128Z,19.20
2023-05-14T10:09:20.112Z,19.20
2023-05-14T10:11:51.012Z,19.50
2023-05-14T10:14:24.949Z,19.50
2023-05-14T10:16:53.074Z,19.30
2023-05-14T10:19:23.886Z,19.30
2023-05-14T10:21:59.944Z,19.20
2023-05-14T10:24:27.847Z,19.10
2023-05-14T10:26:55.008Z,19.20
2023-05-14T10:29:33.385Z,19.20
2023-05-14T10:32:08.064Z,19.10
2023-05-14T10:34:46.376Z,19.10
2023-05-14T10:37:18.008Z,19.10
2023-05-14T10:39:58.594Z,19.10
2023-05-14T10:42:39.787Z,19.10
2023-05-14T10:45:09.268Z,19.10
2023-05-14T10:47:38.165Z,19.10
2023-05-14T10:50:10.908Z,19.20
2023-05-14T10:52:38.338Z,19.20
2023-05-14T10:55:12.638Z,19.10
2023-05-14T10:57:41.956Z,19.00
2023-05-14T11:00:10.844Z,19.00
2023-05-14T11:02:43.190Z,19.10
2023-05-14T11:05:16.053Z,19.10
2023-05-14T11:07:44.402Z,19.10
2023-05-14T11:10:19.271Z,19.10
2023-05-14T11:12:51.244Z,19.10
2023-05-14T11:15:21.210Z,19.10
2023-05-14T11:17:49.629Z,19.10
2023-05-14T11:20:17.499Z,19.10
2023-05-14T11:22:46.707Z,19.10
2023-05-14T11:25:15.162Z,19.10
2023-05-14T11:27:43.836Z,19.20
2023-05-14T11:30:18.856Z,19.20
2023-05-14T11:32:49.330Z,19.30
2023-05-14T11:35:17.666Z,19.40
2023-05-14T11:37:51.621Z,19.40
2023-05-14T11:40:19.449Z,19.20
2023-05-14T11:42:46.536Z,19.10
2023-05-14T11:45:14.495Z,19.10
2023-05-14T11:47:42.915Z,19.10
2023-05-14T11:50:11.159Z,19.20
2023-05-14T11:52:41.737Z,19.30
2023-05-14T11:55:12.868Z,19.20
2023-05-14T11:57:41.164Z,19.20
2023-05-14T12:00:21.376Z,19.10
2023-05-14T12:02:51.990Z,19.00
2023-05-14T12:05:19.191Z,19.10
2023-05-14T12:07:47.287Z,19.30
2023-05-14T12:10:14.404Z,19.50
2023-05-14T12:12:44.951Z,19.40
2023-05-14T12:15:17.092Z,19.30
2023-05-14T12:17:50.869Z,19.20
2023-05-14T12:20:18.424Z,19.20
2023-05-14T12:22:45.390Z,19.20
2023-05-14T12:25:13.956Z,19.10
2023-05-14T12:27:41.531Z,19.20
2023-05-14T12:32:41.372Z,19.30
2023-05-14T12:35:09.516Z,19.30
2023-05-14T12:37:37.582Z,19.30
2023-05-14T12:40:09.376Z,19.30
2023-05-14T12:42:36.961Z,19.10
2023-05-14T12:45:07.262Z,19.30
2023-05-14T12:47:34.831Z,19.30
2023-05-14T12:50:02.235Z,19.20
2023-05-14T12:52:37.516Z,19.20
2023-05-14T12:55:09.836Z,19.10
2023-05-14T12:57:39.352Z,19.10
2023-05-14T13:00:08.510Z,19.10
2023-05-14T13:02:43.130Z,19.00
2023-05-14T13:05:11.732Z,18.90
2023-05-14T13:07:39.130Z,18.80
2023-05-14T13:10:06.821Z,18.80
2023-05-14T13:12:34.108Z,18.70
2023-05-14T13:15:01.098Z,18.80
2023-05-14T13:17:28.148Z,18.80
2023-05-14T13:19:55.271Z,18.80
2023-05-14T13:22:22.186Z,18.80
2023-05-14T13:24:49.130Z,18.70
2023-05-14T13:27:16.194Z,18.60
2023-05-14T13:29:43.227Z,18.60
2023-05-14T13:32:10.401Z,18.70
2023-05-14T13:34:37.421Z,18.70
2023-05-14T13:37:04.622Z,18.70
2023-05-14T13:39:31.561Z,18.80
2023-05-14T13:41:58.462Z,18.80
2023-05-14T13:44:25.654Z,18.80
2023-05-14T13:46:53.189Z,18.90
2023-05-14T13:49:20.371Z,18.90
2023-05-14T13:51:47.469Z,18.80
2023-05-14T13:54:14.391Z,18.80
2023-05-14T13:56:41.354Z,18.70
2023-05-14T13:59:08.371Z,18.60
2023-05-14T14:01:35.405Z,18.60
2023-05-14T14:04:02.477Z,18.50
2023-05-14T14:06:32.467Z,18.40
2023-05-14T14:08:59.713Z,18.30
2023-05-14T14:11:27.439Z,18.40
2023-05-14T14:13:54.610Z,18.40
2023-05-14T14:16:21.616Z,18.50
2023-05-14T14:18:48.597Z,18.50
2023-05-14T14:21:18.385Z,18.40
2023-05-14T14:23:47.389Z,18.40
2023-05-14T14:26:14.428Z,18.50
2023-05-14T14:28:41.545Z,18.50
2023-05-14T14:31:08.560Z,18.60
2023-05-14T14:33:35.550Z,18.60
2023-05-14T14:36:02.535Z,18.60
2023-05-14T14:38:29.451Z,18.60
2023-05-14T14:40:57.191Z,18.60
2023-05-14T14:43:24.845Z,18.60
2023-05-14T14:45:51.832Z,18.60
2023-05-14T14:48:32.947Z,18.60
2023-05-14T14:51:03.748Z,18.40
2023-05-14T14:53:31.612Z,18.30
2023-05-14T14:55:58.998Z,18.20
2023-05-14T14:58:26.246Z,18.10
2023-05-14T15:00:58.175Z,18.00
2023-05-14T15:03:25.677Z,17.90
2023-05-14T15:05:53.871Z,17.80
2023-05-14T15:08:24.985Z,17.60
2023-05-14T15:10:52.209Z,17.60
2023-05-14T15:13:19.763Z,17.50
2023-05-14T15:15:47.369Z,17.30
2023-05-14T15:18:14.294Z,17.30
2023-05-14T15:20:41.472Z,17.10
2023-05-14T15:23:09.221Z,17.00
2023-05-14T15:25:36.448Z,17.00
2023-05-14T15:28:05.708Z,16.90
2023-05-14T15:30:33.100Z,16.80
2023-05-14T15:33:00.719Z,16.70
2023-05-14T15:35:28.304Z,16.70
2023-05-14T15:37:59.862Z,16.70
2023-05-14T15:40:27.944Z,16.60
2023-05-14T15:42:55.291Z,16.60
2023-05-14T15:45:31.786Z,16.50
2023-05-14T15:48:00.935Z,16.50
2023-05-14T15:50:28.310Z,16.50
2023-05-14T15:52:55.548Z,16.50
2023-05-14T15:55:38.724Z,16.60
2023-05-14T16:02:18.645Z,16.80
2023-05-14T16:04:45.794Z,17.00
2023-05-14T16:07:13.460Z,16.80
2023-05-14T16:09:40.605Z,16.70
2023-05-14T16:12:08.579Z,16.70
2023-05-14T16:14:35.985Z,16.60
2023-05-14T16:17:03.640Z,16.60
2023-05-14T16:19:30.886Z,16.60
2023-05-14T16:21:57.977Z,16.60
2023-05-14T16:24:24.921Z,16.60
2023-05-14T16:26:51.960Z,16.50
2023-05-14T16:29:19.028Z,16.40
2023-05-14T16:31:46.238Z,16.40
2023-05-14T16:34:15.880Z,16.40
2023-05-14T16:36:43.762Z,16.40
2023-05-14T16:39:11.576Z,16.40
2023-05-14T16:41:38.694Z,16.40
2023-05-14T16:44:05.979Z,16.50
2023-05-14T16:46:33.500Z,16.50
2023-05-14T16:49:02.432Z,16.50
2023-05-14T16:51:32.988Z,16.50
2023-05-14T16:54:00.763Z,16.50
2023-05-14T16:56:27.867Z,16.50
2023-05-14T16:58:54.944Z,16.50
2023-05-14T17:01:22.088Z,16.50
2023-05-14T17:03:51.510Z,16.50
2023-05-14T17:06:18.808Z,16.50
2023-05-14T17:08:45.968Z,16.40
2023-05-14T17:11:15.780Z,16.40
2023-05-14T17:13:42.772Z,16.30
2023-05-14T17:16:09.893Z,16.20
2023-05-14T17:18:37.973Z,16.20
2023-05-14T17:21:06.053Z,16.20
2023-05-14T17:23:33.335Z,16.20
2023-05-14T17:26:00.321Z,16.20
2023-05-14T17:28:28.556Z,16.20
2023-05-14T17:30:56.357Z,16.20
2023-05-14T17:33:23.580Z,16.20
2023-05-14T17:35:50.692Z,16.20
2023-05-14T17:38:17.820Z,16.00
2023-05-14T17:40:45.232Z,16.00
2023-05-14T17:43:12.625Z,16.00
2023-05-14T17:45:52.979Z,16.10
2023-05-14T17:48:24.314Z,16.10
2023-05-14T17:50:52.160Z,16.10
2023-05-14T17:53:19.626Z,16.10
2023-05-14T17:55:47.080Z,16.10
2023-05-14T17:58:15.610Z,16.10
2023-05-14T18:00:45.536Z,16.10
2023-05-14T18:03:14.415Z,16.00
2023-05-14T18:05:41.831Z,16.00
2023-05-14T18:08:09.882Z,16.00
2023-05-14T18:10:37.249Z,16.00
2023-05-14T18:13:07.769Z,15.90
2023-05-14T18:15:37.815Z,15.90
2023-05-14T18:18:05.498Z,15.90
2023-05-14T18:20:34.145Z,15.90
2023-05-14T18:23:03.095Z,15.80
2023-05-14T18:25:30.276Z,15.70
2023-05-14T18:27:57.624Z,15.70
2023-05-14T18:30:24.679Z,15.60
2023-05-14T18:32:52.091Z,15.60
2023-05-14T18:35:19.481Z,15.60
2023-05-14T18:37:46.811Z,15.50
2023-05-14T18:40:16.312Z,15.50
2023-05-14T18:42:45.642Z,15.50
2023-05-14T18:45:12.748Z,15.40
2023-05-14T18:47:40.230Z,15.50
2023-05-14T18:50:08.350Z,15.50
2023-05-14T18:52:35.702Z,15.50
2023-05-14T18:55:03.000Z,15.50
2023-05-14T18:57:32.435Z,15.50
2023-05-14T19:00:03.488Z,15.50
2023-05-14T19:02:31.764Z,15.50
2023-05-14T19:04:59.298Z,15.40
2023-05-14T19:07:27.867Z,15.40
2023-05-14T19:09:55.177Z,15.40
2023-05-14T19:12:22.398Z,15.50
2023-05-14T19:14:49.338Z,15.40
2023-05-14T19:17:18.350Z,15.40
2023-05-14T19:19:46.122Z,15.40
2023-05-14T19:22:13.172Z,15.40
2023-05-14T19:24:40.251Z,15.40
2023-05-14T19:27:07.798Z,15.40
2023-05-14T19:29:36.866Z,15.30
2023-05-14T19:32:04.769Z,15.20
2023-05-14T19:34:31.785Z,15.10
2023-05-14T19:36:59.233Z,15.10
2023-05-14T19:39:29.415Z,15.00
2023-05-14T19:41:56.546Z,15.00
2023-05-14T19:44:23.718Z,14.90
2023-05-14T19:46:51.147Z,14.90
2023-05-14T19:49:18.215Z,14.90
2023-05-14T19:51:45.313Z,14.90
2023-05-14T19:54:12.375Z,14.80
2023-05-14T19:56:39.609Z,14.80
2023-05-14T19:59:07.064Z,14.80
2023-05-14T20:01:34.881Z,14.80
2023-05-14T20:04:04.360Z,14.80
2023-05-14T20:06:32.159Z,14.70
2023-05-14T20:08:59.440Z,14.70
2023-05-14T20:11:26.858Z,14.50
2023-05-14T20:13:53.938Z,14.50
2023-05-14T20:16:21.738Z,14.50
2023-05-14T20:18:49.106Z,14.50
2023-05-14T20:21:16.181Z,14.30
2023-05-14T20:23:43.238Z,14.20
2023-05-14T20:26:10.541Z,14.20
2023-05-14T20:28:37.509Z,14.10
2023-05-14T20:31:07.882Z,14.10
2023-05-14T20:33:35.385Z,14.00
2023-05-14T20:36:04.525Z,14.00
2023-05-14T20:38:32.824Z,13.90
2023-05-14T20:40:59.807Z,13.80
2023-05-14T20:43:30.568Z,13.70
2023-05-14T20:45:59.046Z,13.60
2023-05-14T20:48:26.414Z,13.60
2023-05-14T20:50:53.516Z,13.60
2023-05-14T20:53:20.520Z,13.50
2023-05-14T20:55:47.633Z,13.50
2023-05-14T20:58:14.771Z,13.60
2023-05-14T21:00:43.494Z,13.60
2023-05-14T21:03:10.842Z,13.70
2023-05-14T21:05:38.369Z,13.70
2023-05-14T21:08:05.967Z,13.70
2023-05-14T21:10:33.096Z,13.70
2023-05-14T21:13:03.018Z,13.70
2023-05-14T21:15:30.784Z,13.70
2023-05-14T21:17:57.828Z,13.80
2023-05-14T21:20:24.980Z,13.80
2023-05-14T21:22:52.012Z,13.80
2023-05-14T21:25:19.220Z,13.90
2023-05-14T21:27:46.343Z,13.90
2023-05-14T21:30:13.910Z,13.90
2023-05-14T21:32:40.980Z,14.00
2023-05-14T21:35:08.377Z,14.00
2023-05-14T21:37:35.436Z,14.00
2023-05-14T21:40:02.552Z,14.10
2023-05-14T21:42:29.627Z,14.10
2023-05-14T21:44:56.662Z,14.10
2023-05-14T21:47:23.753Z,14.10
2023-05-14T21:49:50.727Z,14.10
2023-05-14T21:52:17.762Z,14.10
2023-05-14T21:54:44.814Z,14.10
2023-05-14T21:57:11.763Z,14.10
2023-05-14T21:59:38.789Z,14.20
2023-05-14T22:02:07.291Z,14.20
2023-05-14T22:04:35.559Z,14.30
2023-05-14T22:07:02.889Z,14.20
2023-05-14T22:09:30.503Z,14.30
2023-05-14T22:11:58.420Z,14.30
2023-05-14T22:14:27.372Z,14.20
2023-05-14T22:16:54.573Z,14.20
2023-05-14T22:19:22.400Z,14.20
2023-05-14T22:21:49.603Z,14.10
2023-05-14T22:24:16.765Z,14.20
2023-05-14T22:26:44.076Z,14.20
2023-05-14T22:29:11.284Z,14.20
2023-05-14T22:31:38.400Z,14.10
2023-05-14T22:34:05.694Z,14.10
2023-05-14T22:36:32.662Z,14.10
2023-05-14T22:38:59.651Z,14.10
2023-05-14T22:41:26.782Z,14.10
2023-05-14T22:43:53.769Z,14.10
2023-05-14T22:46:21.218Z,14.10
2023-05-14T22:48:49.293Z,14.10
2023-05-14T22:51:16.736Z,14.10
2023-05-14T22:53:43.915Z,14.10
2023-05-14T22:56:11.064Z,14.10
2023-05-14T22:58:38.255Z,14.10
2023-05-14T23:01:05.433Z,14.10
2023-05-14T23:03:32.563Z,14.10
2023-05-14T23:05:59.597Z,14.10
2023-05-14T23:08:26.625Z,14.10
2023-05-14T23:10:53.977Z,14.10
2023-05-14T23:13:21.269Z,14.10
2023-05-14T23:15:48.825Z,14.10
2023-05-14T23:18:15.980Z,14.10
2023-05-14T23:20:43.416Z,14.10
2023-05-14T23:23:10.432Z,14.10
2023-05-14T23:25:38.321Z,14.10
2023-05-14T23:28:05.486Z,14.10
2023-05-14T23:30:32.471Z,14.00
2023-05-14T23:32:59.541Z,14.00
2023-05-14T23:35:26.870Z,14.00
2023-05-14T23:37:55.388Z,14.10
2023-05-14T23:40:22.417Z,14.00
2023-05-14T23:42:49.396Z,14.00
2023-05-14T23:45:16.606Z,14.00
2023-05-14T23:47:43.658Z,14.00
2023-05-14T23:50:10.868Z,14.00
2023-05-14T23:52:37.984Z,14.00
2023-05-14T23:55:05.430Z,14.00
2023-05-14T23:57:32.427Z,14.00
2023-05-14T23:59:59.447Z,14.00
